sensor_id;sensor_type;location;lat;lon;timestamp;temperature;humidity
17172;DHT22;8701;50.150;8.756;2022-08-01T00:01:08;23.10;99.90
17172;DHT22;8701;50.150;8.756;2022-08-01T00:05:10;23.10;99.90
17172;DHT22;8701;50.150;8.756;2022-08-01T00:09:14;23.00;99.90
17172;DHT22;8701;50.150;8.756;2022-08-01T00:13:17;23.00;99.90
17172;DHT22;8701;50.150;8.756;2022-08-01T00:17:19;23.20;99.90
17172;DHT22;8701;50.150;8.756;2022-08-01T00:21:21;23.00;99.90
17172;DHT22;8701;50.150;8.756;2022-08-01T00:25:25;22.90;99.90
17172;DHT22;8701;50.150;8.756;2022-08-01T00:29:28;23.00;99.90
17172;DHT22;8701;50.150;8.756;2022-08-01T00:33:30;22.90;99.90
17172;DHT22;8701;50.150;8.756;2022-08-01T00:37:32;22.90;99.90
17172;DHT22;8701;50.150;8.756;2022-08-01T00:41:36;22.90;99.90
17172;DHT22;8701;50.150;8.756;2022-08-01T00:45:38;22.90;99.90
17172;DHT22;8701;50.150;8.756;2022-08-01T00:49:41;22.80;99.90
17172;DHT22;8701;50.150;8.756;2022-08-01T00:53:43;22.70;99.90
17172;DHT22;8701;50.150;8.756;2022-08-01T00:57:48;22.60;99.90
17172;DHT22;8701;50.150;8.756;2022-08-01T01:01:50;22.60;99.90
17172;DHT22;8701;50.150;8.756;2022-08-01T01:06:01;22.60;99.90
17172;DHT22;8701;50.150;8.756;2022-08-01T01:10:12;22.50;99.90
17172;DHT22;8701;50.150;8.756;2022-08-01T01:14:27;22.50;99.90
17172;DHT22;8701;50.150;8.756;2022-08-01T01:18:35;22.50;99.90
17172;DHT22;8701;50.150;8.756;2022-08-01T01:22:53;22.50;99.90
17172;DHT22;8701;50.150;8.756;2022-08-01T01:27:06;22.40;99.90
17172;DHT22;8701;50.150;8.756;2022-08-01T01:31:14;22.30;99.90
17172;DHT22;8701;50.150;8.756;2022-08-01T01:35:22;22.40;99.90
17172;DHT22;8701;50.150;8.756;2022-08-01T01:39:27;22.20;99.90
17172;DHT22;8701;50.150;8.756;2022-08-01T01:43:30;22.40;99.90
17172;DHT22;8701;50.150;8.756;2022-08-01T01:47:36;22.40;99.90
17172;DHT22;8701;50.150;8.756;2022-08-01T01:51:41;22.40;99.90
17172;DHT22;8701;50.150;8.756;2022-08-01T01:55:46;22.10;99.90
17172;DHT22;8701;50.150;8.756;2022-08-01T01:59:50;22.10;99.90
17172;DHT22;8701;50.150;8.756;2022-08-01T02:03:56;22.00;99.90
17172;DHT22;8701;50.150;8.756;2022-08-01T02:07:58;21.90;99.90
17172;DHT22;8701;50.150;8.756;2022-08-01T02:12:02;21.90;99.90
17172;DHT22;8701;50.150;8.756;2022-08-01T02:16:07;21.80;99.90
17172;DHT22;8701;50.150;8.756;2022-08-01T02:20:13;21.80;99.90
17172;DHT22;8701;50.150;8.756;2022-08-01T02:24:20;21.90;99.90
17172;DHT22;8701;50.150;8.756;2022-08-01T02:28:30;21.90;99.90
17172;DHT22;8701;50.150;8.756;2022-08-01T02:32:36;21.80;99.90
17172;DHT22;8701;50.150;8.756;2022-08-01T02:36:44;21.80;99.90
17172;DHT22;8701;50.150;8.756;2022-08-01T02:40:50;21.80;99.90
17172;DHT22;8701;50.150;8.756;2022-08-01T02:44:53;21.80;99.90
17172;DHT22;8701;50.150;8.756;2022-08-01T02:48:58;22.00;99.90
17172;DHT22;8701;50.150;8.756;2022-08-01T02:53:04;21.80;99.90
17172;DHT22;8701;50.150;8.756;2022-08-01T02:57:08;21.80;99.90
17172;DHT22;8701;50.150;8.756;2022-08-01T03:01:13;21.80;99.90
17172;DHT22;8701;50.150;8.756;2022-08-01T03:05:20;21.70;99.90
17172;DHT22;8701;50.150;8.756;2022-08-01T03:09:25;21.80;99.90
17172;DHT22;8701;50.150;8.756;2022-08-01T03:13:29;21.60;99.90
17172;DHT22;8701;50.150;8.756;2022-08-01T03:17:34;21.60;99.90
17172;DHT22;8701;50.150;8.756;2022-08-01T03:21:37;21.50;99.90
17172;DHT22;8701;50.150;8.756;2022-08-01T03:25:43;21.50;99.90
17172;DHT22;8701;50.150;8.756;2022-08-01T03:29:47;21.50;99.90
17172;DHT22;8701;50.150;8.756;2022-08-01T03:33:50;21.50;99.90
17172;DHT22;8701;50.150;8.756;2022-08-01T03:37:55;21.50;99.90
17172;DHT22;8701;50.150;8.756;2022-08-01T03:42:01;21.40;99.90
17172;DHT22;8701;50.150;8.756;2022-08-01T03:46:10;21.60;99.90
17172;DHT22;8701;50.150;8.756;2022-08-01T03:50:14;21.60;99.90
17172;DHT22;8701;50.150;8.756;2022-08-01T03:54:21;21.70;99.90
17172;DHT22;8701;50.150;8.756;2022-08-01T03:58:27;21.70;99.90
17172;DHT22;8701;50.150;8.756;2022-08-01T04:02:30;21.70;99.90
17172;DHT22;8701;50.150;8.756;2022-08-01T04:06:32;21.70;99.90
17172;DHT22;8701;50.150;8.756;2022-08-01T04:10:34;21.60;99.90
17172;DHT22;8701;50.150;8.756;2022-08-01T04:14:38;21.80;99.90
17172;DHT22;8701;50.150;8.756;2022-08-01T04:18:41;21.70;99.90
17172;DHT22;8701;50.150;8.756;2022-08-01T04:22:43;21.70;99.90
17172;DHT22;8701;50.150;8.756;2022-08-01T04:26:46;21.70;99.90
17172;DHT22;8701;50.150;8.756;2022-08-01T04:30:54;21.70;99.90
17172;DHT22;8701;50.150;8.756;2022-08-01T04:34:58;21.70;99.90
17172;DHT22;8701;50.150;8.756;2022-08-01T04:39:02;21.70;99.90
17172;DHT22;8701;50.150;8.756;2022-08-01T04:43:05;21.70;99.90
17172;DHT22;8701;50.150;8.756;2022-08-01T04:47:10;21.90;99.90
17172;DHT22;8701;50.150;8.756;2022-08-01T04:51:14;21.70;99.90
17172;DHT22;8701;50.150;8.756;2022-08-01T04:55:17;21.70;99.90
17172;DHT22;8701;50.150;8.756;2022-08-01T04:59:19;21.60;99.90
17172;DHT22;8701;50.150;8.756;2022-08-01T05:03:40;21.90;99.90
17172;DHT22;8701;50.150;8.756;2022-08-01T05:07:43;21.80;99.90
17172;DHT22;8701;50.150;8.756;2022-08-01T05:11:45;21.90;99.90
17172;DHT22;8701;50.150;8.756;2022-08-01T05:15:48;22.00;99.90
17172;DHT22;8701;50.150;8.756;2022-08-01T05:19:51;22.00;99.90
17172;DHT22;8701;50.150;8.756;2022-08-01T05:23:53;22.20;99.90
17172;DHT22;8701;50.150;8.756;2022-08-01T05:27:56;22.10;99.90
17172;DHT22;8701;50.150;8.756;2022-08-01T05:31:58;22.10;99.90
17172;DHT22;8701;50.150;8.756;2022-08-01T05:36:02;22.10;99.90
17172;DHT22;8701;50.150;8.756;2022-08-01T05:40:06;22.00;99.90
17172;DHT22;8701;50.150;8.756;2022-08-01T05:44:11;22.00;99.90
17172;DHT22;8701;50.150;8.756;2022-08-01T05:48:13;22.00;99.90
17172;DHT22;8701;50.150;8.756;2022-08-01T05:52:17;22.10;99.90
17172;DHT22;8701;50.150;8.756;2022-08-01T05:56:20;22.30;99.90
17172;DHT22;8701;50.150;8.756;2022-08-01T06:00:22;22.10;99.90
17172;DHT22;8701;50.150;8.756;2022-08-01T06:04:25;22.10;99.90
17172;DHT22;8701;50.150;8.756;2022-08-01T06:08:28;22.20;99.90
17172;DHT22;8701;50.150;8.756;2022-08-01T06:12:32;22.20;99.90
17172;DHT22;8701;50.150;8.756;2022-08-01T06:16:34;22.30;99.90
17172;DHT22;8701;50.150;8.756;2022-08-01T06:20:37;22.40;99.90
17172;DHT22;8701;50.150;8.756;2022-08-01T06:24:40;22.40;99.90
17172;DHT22;8701;50.150;8.756;2022-08-01T06:28:43;22.60;99.90
17172;DHT22;8701;50.150;8.756;2022-08-01T06:32:45;22.40;99.90
17172;DHT22;8701;50.150;8.756;2022-08-01T06:36:48;22.30;99.90
17172;DHT22;8701;50.150;8.756;2022-08-01T06:40:52;22.50;99.90
17172;DHT22;8701;50.150;8.756;2022-08-01T06:44:54;22.30;99.90
17172;DHT22;8701;50.150;8.756;2022-08-01T06:48:56;22.40;99.90
17172;DHT22;8701;50.150;8.756;2022-08-01T06:52:59;22.70;99.90
17172;DHT22;8701;50.150;8.756;2022-08-01T06:57:04;22.70;99.90
17172;DHT22;8701;50.150;8.756;2022-08-01T07:01:07;22.80;99.90
17172;DHT22;8701;50.150;8.756;2022-08-01T07:05:09;22.80;99.90
17172;DHT22;8701;50.150;8.756;2022-08-01T07:09:11;23.20;99.90
17172;DHT22;8701;50.150;8.756;2022-08-01T07:13:15;23.30;99.90
17172;DHT22;8701;50.150;8.756;2022-08-01T07:17:21;23.50;99.90
17172;DHT22;8701;50.150;8.756;2022-08-01T07:21:24;23.80;99.90
17172;DHT22;8701;50.150;8.756;2022-08-01T07:25:26;23.90;99.90
17172;DHT22;8701;50.150;8.756;2022-08-01T07:29:30;24.00;99.90
17172;DHT22;8701;50.150;8.756;2022-08-01T07:33:32;24.00;99.90
17172;DHT22;8701;50.150;8.756;2022-08-01T07:37:35;24.00;99.90
17172;DHT22;8701;50.150;8.756;2022-08-01T07:41:37;24.30;99.90
17172;DHT22;8701;50.150;8.756;2022-08-01T07:45:41;24.50;99.90
17172;DHT22;8701;50.150;8.756;2022-08-01T07:49:43;24.90;99.90
17172;DHT22;8701;50.150;8.756;2022-08-01T07:53:46;25.20;99.90
17172;DHT22;8701;50.150;8.756;2022-08-01T07:57:48;25.90;99.90
17172;DHT22;8701;50.150;8.756;2022-08-01T08:01:52;26.40;99.90
17172;DHT22;8701;50.150;8.756;2022-08-01T08:05:54;26.60;99.90
17172;DHT22;8701;50.150;8.756;2022-08-01T08:09:57;26.30;99.90
17172;DHT22;8701;50.150;8.756;2022-08-01T08:14:00;26.10;99.90
17172;DHT22;8701;50.150;8.756;2022-08-01T08:18:04;26.00;99.90
17172;DHT22;8701;50.150;8.756;2022-08-01T08:22:07;25.90;99.90
17172;DHT22;8701;50.150;8.756;2022-08-01T08:26:09;26.00;99.90
17172;DHT22;8701;50.150;8.756;2022-08-01T08:30:12;26.00;99.90
17172;DHT22;8701;50.150;8.756;2022-08-01T08:34:16;26.10;99.90
17172;DHT22;8701;50.150;8.756;2022-08-01T08:38:18;26.10;99.90
17172;DHT22;8701;50.150;8.756;2022-08-01T08:42:21;25.90;99.90
17172;DHT22;8701;50.150;8.756;2022-08-01T08:46:23;25.50;99.90
17172;DHT22;8701;50.150;8.756;2022-08-01T08:50:28;25.30;99.90
17172;DHT22;8701;50.150;8.756;2022-08-01T08:54:32;25.20;99.90
17172;DHT22;8701;50.150;8.756;2022-08-01T08:58:35;25.10;99.90
17172;DHT22;8701;50.150;8.756;2022-08-01T09:02:41;25.20;99.90
17172;DHT22;8701;50.150;8.756;2022-08-01T09:06:45;25.20;99.90
17172;DHT22;8701;50.150;8.756;2022-08-01T09:10:47;25.20;99.90
17172;DHT22;8701;50.150;8.756;2022-08-01T09:14:49;25.30;99.90
17172;DHT22;8701;50.150;8.756;2022-08-01T09:19:06;25.40;99.90
17172;DHT22;8701;50.150;8.756;2022-08-01T09:23:31;25.50;99.90
17172;DHT22;8701;50.150;8.756;2022-08-01T09:27:34;25.70;99.90
17172;DHT22;8701;50.150;8.756;2022-08-01T09:31:41;26.00;99.90
17172;DHT22;8701;50.150;8.756;2022-08-01T09:35:43;27.20;99.90
17172;DHT22;8701;50.150;8.756;2022-08-01T09:39:56;28.20;99.90
17172;DHT22;8701;50.150;8.756;2022-08-01T09:43:59;29.10;99.90
17172;DHT22;8701;50.150;8.756;2022-08-01T09:48:06;28.90;99.90
17172;DHT22;8701;50.150;8.756;2022-08-01T09:52:13;28.80;99.90
17172;DHT22;8701;50.150;8.756;2022-08-01T09:56:17;30.20;99.90
17172;DHT22;8701;50.150;8.756;2022-08-01T10:00:19;31.20;96.70
17172;DHT22;8701;50.150;8.756;2022-08-01T10:04:22;32.50;94.40
17172;DHT22;8701;50.150;8.756;2022-08-01T10:08:25;33.90;91.80
17172;DHT22;8701;50.150;8.756;2022-08-01T10:12:32;34.70;90.90
17172;DHT22;8701;50.150;8.756;2022-08-01T10:16:35;35.10;87.30
17172;DHT22;8701;50.150;8.756;2022-08-01T10:20:38;35.30;87.30
17172;DHT22;8701;50.150;8.756;2022-08-01T10:24:40;35.50;83.50
17172;DHT22;8701;50.150;8.756;2022-08-01T10:28:48;35.60;81.60
17172;DHT22;8701;50.150;8.756;2022-08-01T10:32:50;34.00;85.10
17172;DHT22;8701;50.150;8.756;2022-08-01T10:36:54;32.60;85.80
17172;DHT22;8701;50.150;8.756;2022-08-01T10:40:57;32.40;85.80
17172;DHT22;8701;50.150;8.756;2022-08-01T10:45:03;32.20;87.20
17172;DHT22;8701;50.150;8.756;2022-08-01T10:49:08;31.60;89.40
17172;DHT22;8701;50.150;8.756;2022-08-01T10:53:14;31.80;89.50
17172;DHT22;8701;50.150;8.756;2022-08-01T10:57:17;31.80;90.10
17172;DHT22;8701;50.150;8.756;2022-08-01T11:01:25;32.60;87.50
17172;DHT22;8701;50.150;8.756;2022-08-01T11:05:31;33.70;85.70
17172;DHT22;8701;50.150;8.756;2022-08-01T11:09:44;33.50;84.80
17172;DHT22;8701;50.150;8.756;2022-08-01T11:14:03;33.60;84.30
17172;DHT22;8701;50.150;8.756;2022-08-01T11:18:30;32.60;85.70
17172;DHT22;8701;50.150;8.756;2022-08-01T11:27:17;31.80;88.70
17172;DHT22;8701;50.150;8.756;2022-08-01T11:31:30;31.20;89.30
17172;DHT22;8701;50.150;8.756;2022-08-01T11:35:34;30.90;90.10
17172;DHT22;8701;50.150;8.756;2022-08-01T11:39:37;30.40;89.90
17172;DHT22;8701;50.150;8.756;2022-08-01T11:43:55;30.30;91.00
17172;DHT22;8701;50.150;8.756;2022-08-01T11:47:58;30.00;90.90
17172;DHT22;8701;50.150;8.756;2022-08-01T11:52:05;30.10;91.10
17172;DHT22;8701;50.150;8.756;2022-08-01T11:56:08;30.30;90.70
17172;DHT22;8701;50.150;8.756;2022-08-01T12:00:13;30.90;90.70
17172;DHT22;8701;50.150;8.756;2022-08-01T12:04:15;31.70;89.40
17172;DHT22;8701;50.150;8.756;2022-08-01T12:08:26;32.20;88.10
17172;DHT22;8701;50.150;8.756;2022-08-01T12:12:29;32.70;85.50
17172;DHT22;8701;50.150;8.756;2022-08-01T12:16:32;33.00;86.30
17172;DHT22;8701;50.150;8.756;2022-08-01T12:20:36;33.40;83.50
17172;DHT22;8701;50.150;8.756;2022-08-01T12:24:41;33.70;81.90
17172;DHT22;8701;50.150;8.756;2022-08-01T12:28:44;33.80;81.00
17172;DHT22;8701;50.150;8.756;2022-08-01T12:32:47;33.30;82.30
17172;DHT22;8701;50.150;8.756;2022-08-01T12:36:54;33.00;83.20
17172;DHT22;8701;50.150;8.756;2022-08-01T12:40:58;33.00;81.40
17172;DHT22;8701;50.150;8.756;2022-08-01T12:45:00;33.10;83.50
17172;DHT22;8701;50.150;8.756;2022-08-01T12:49:03;32.80;81.10
17172;DHT22;8701;50.150;8.756;2022-08-01T12:53:05;32.50;82.50
17172;DHT22;8701;50.150;8.756;2022-08-01T12:57:24;32.50;83.60
17172;DHT22;8701;50.150;8.756;2022-08-01T13:01:27;32.30;83.80
17172;DHT22;8701;50.150;8.756;2022-08-01T13:05:41;32.20;83.40
17172;DHT22;8701;50.150;8.756;2022-08-01T13:09:49;32.00;83.90
17172;DHT22;8701;50.150;8.756;2022-08-01T13:13:53;31.90;84.30
17172;DHT22;8701;50.150;8.756;2022-08-01T13:17:59;31.80;84.30
17172;DHT22;8701;50.150;8.756;2022-08-01T13:22:01;31.90;85.70
17172;DHT22;8701;50.150;8.756;2022-08-01T13:26:04;31.90;84.10
17172;DHT22;8701;50.150;8.756;2022-08-01T13:30:15;31.90;81.80
17172;DHT22;8701;50.150;8.756;2022-08-01T13:34:17;31.80;83.20
17172;DHT22;8701;50.150;8.756;2022-08-01T13:38:20;31.50;81.70
17172;DHT22;8701;50.150;8.756;2022-08-01T13:42:43;31.40;83.50
17172;DHT22;8701;50.150;8.756;2022-08-01T13:46:46;31.20;84.80
17172;DHT22;8701;50.150;8.756;2022-08-01T13:50:49;30.80;84.30
17172;DHT22;8701;50.150;8.756;2022-08-01T13:54:51;30.70;85.70
17172;DHT22;8701;50.150;8.756;2022-08-01T13:58:54;30.60;85.50
17172;DHT22;8701;50.150;8.756;2022-08-01T14:02:57;30.50;86.30
17172;DHT22;8701;50.150;8.756;2022-08-01T14:07:00;30.40;85.70
17172;DHT22;8701;50.150;8.756;2022-08-01T14:11:02;30.20;87.20
17172;DHT22;8701;50.150;8.756;2022-08-01T14:15:05;30.00;87.20
17172;DHT22;8701;50.150;8.756;2022-08-01T14:19:09;29.90;86.90
17172;DHT22;8701;50.150;8.756;2022-08-01T14:23:12;29.90;88.20
17172;DHT22;8701;50.150;8.756;2022-08-01T14:27:14;29.80;87.90
17172;DHT22;8701;50.150;8.756;2022-08-01T14:31:16;29.70;89.40
17172;DHT22;8701;50.150;8.756;2022-08-01T14:35:20;29.40;88.00
17172;DHT22;8701;50.150;8.756;2022-08-01T14:39:23;29.20;89.80
17172;DHT22;8701;50.150;8.756;2022-08-01T14:43:25;29.10;89.40
17172;DHT22;8701;50.150;8.756;2022-08-01T14:47:27;29.00;89.90
17172;DHT22;8701;50.150;8.756;2022-08-01T14:51:31;29.00;89.90
17172;DHT22;8701;50.150;8.756;2022-08-01T14:55:35;29.10;90.60
17172;DHT22;8701;50.150;8.756;2022-08-01T14:59:37;29.30;90.00
17172;DHT22;8701;50.150;8.756;2022-08-01T15:03:40;29.50;89.70
17172;DHT22;8701;50.150;8.756;2022-08-01T15:07:44;29.70;88.90
17172;DHT22;8701;50.150;8.756;2022-08-01T15:11:46;29.80;89.40
17172;DHT22;8701;50.150;8.756;2022-08-01T15:15:49;29.70;88.70
17172;DHT22;8701;50.150;8.756;2022-08-01T15:19:53;29.70;89.40
17172;DHT22;8701;50.150;8.756;2022-08-01T15:23:57;29.60;88.30
17172;DHT22;8701;50.150;8.756;2022-08-01T15:27:59;29.50;88.90
17172;DHT22;8701;50.150;8.756;2022-08-01T15:32:02;29.50;88.80
17172;DHT22;8701;50.150;8.756;2022-08-01T15:36:05;29.40;89.10
17172;DHT22;8701;50.150;8.756;2022-08-01T15:40:10;29.40;89.20
17172;DHT22;8701;50.150;8.756;2022-08-01T15:44:12;29.40;90.10
17172;DHT22;8701;50.150;8.756;2022-08-01T15:48:15;29.20;89.50
17172;DHT22;8701;50.150;8.756;2022-08-01T15:52:17;29.10;89.30
17172;DHT22;8701;50.150;8.756;2022-08-01T15:56:42;28.90;89.20
17172;DHT22;8701;50.150;8.756;2022-08-01T16:00:44;28.80;90.00
17172;DHT22;8701;50.150;8.756;2022-08-01T16:04:46;28.70;89.50
17172;DHT22;8701;50.150;8.756;2022-08-01T16:08:49;28.60;90.00
17172;DHT22;8701;50.150;8.756;2022-08-01T16:12:53;28.60;89.50
17172;DHT22;8701;50.150;8.756;2022-08-01T16:16:55;28.60;89.50
17172;DHT22;8701;50.150;8.756;2022-08-01T16:20:57;28.60;89.80
17172;DHT22;8701;50.150;8.756;2022-08-01T16:25:00;28.50;88.90
17172;DHT22;8701;50.150;8.756;2022-08-01T16:29:03;28.40;89.40
17172;DHT22;8701;50.150;8.756;2022-08-01T16:33:06;28.30;89.40
17172;DHT22;8701;50.150;8.756;2022-08-01T16:37:10;28.30;89.90
17172;DHT22;8701;50.150;8.756;2022-08-01T16:41:13;28.20;90.20
17172;DHT22;8701;50.150;8.756;2022-08-01T16:45:17;28.20;90.70
17172;DHT22;8701;50.150;8.756;2022-08-01T16:49:21;28.20;90.60
17172;DHT22;8701;50.150;8.756;2022-08-01T16:53:23;28.20;90.30
17172;DHT22;8701;50.150;8.756;2022-08-01T16:57:25;28.10;90.40
17172;DHT22;8701;50.150;8.756;2022-08-01T17:01:29;28.10;90.40
17172;DHT22;8701;50.150;8.756;2022-08-01T17:05:33;28.00;90.20
17172;DHT22;8701;50.150;8.756;2022-08-01T17:09:35;28.00;90.20
17172;DHT22;8701;50.150;8.756;2022-08-01T17:13:37;27.90;90.60
17172;DHT22;8701;50.150;8.756;2022-08-01T17:17:41;27.70;90.80
17172;DHT22;8701;50.150;8.756;2022-08-01T17:21:43;27.60;90.90
17172;DHT22;8701;50.150;8.756;2022-08-01T17:25:46;27.50;91.30
17172;DHT22;8701;50.150;8.756;2022-08-01T17:29:49;27.50;91.00
17172;DHT22;8701;50.150;8.756;2022-08-01T17:33:53;27.40;91.10
17172;DHT22;8701;50.150;8.756;2022-08-01T17:37:55;27.30;91.30
17172;DHT22;8701;50.150;8.756;2022-08-01T17:41:58;27.20;91.00
17172;DHT22;8701;50.150;8.756;2022-08-01T17:46:01;27.10;91.10
17172;DHT22;8701;50.150;8.756;2022-08-01T17:50:08;27.00;91.60
17172;DHT22;8701;50.150;8.756;2022-08-01T17:54:10;27.00;91.50
17172;DHT22;8701;50.150;8.756;2022-08-01T17:58:13;26.90;92.00
17172;DHT22;8701;50.150;8.756;2022-08-01T18:02:17;26.90;92.30
17172;DHT22;8701;50.150;8.756;2022-08-01T18:06:21;26.80;91.80
17172;DHT22;8701;50.150;8.756;2022-08-01T18:10:23;26.70;92.20
17172;DHT22;8701;50.150;8.756;2022-08-01T18:14:26;26.60;92.10
17172;DHT22;8701;50.150;8.756;2022-08-01T18:18:28;26.60;92.20
17172;DHT22;8701;50.150;8.756;2022-08-01T18:22:32;26.50;92.30
17172;DHT22;8701;50.150;8.756;2022-08-01T18:26:34;26.40;92.20
17172;DHT22;8701;50.150;8.756;2022-08-01T18:30:37;26.40;92.40
17172;DHT22;8701;50.150;8.756;2022-08-01T18:34:39;26.30;92.10
17172;DHT22;8701;50.150;8.756;2022-08-01T18:38:43;26.20;92.40
17172;DHT22;8701;50.150;8.756;2022-08-01T18:42:45;26.20;92.70
17172;DHT22;8701;50.150;8.756;2022-08-01T18:46:48;26.10;92.60
17172;DHT22;8701;50.150;8.756;2022-08-01T18:50:50;26.10;92.80
17172;DHT22;8701;50.150;8.756;2022-08-01T18:54:55;26.00;92.70
17172;DHT22;8701;50.150;8.756;2022-08-01T18:58:57;25.90;92.50
17172;DHT22;8701;50.150;8.756;2022-08-01T19:02:59;25.90;92.80
17172;DHT22;8701;50.150;8.756;2022-08-01T19:07:03;25.70;92.80
17172;DHT22;8701;50.150;8.756;2022-08-01T19:11:06;25.80;93.10
17172;DHT22;8701;50.150;8.756;2022-08-01T19:15:09;25.70;93.20
17172;DHT22;8701;50.150;8.756;2022-08-01T19:19:12;25.70;93.10
17172;DHT22;8701;50.150;8.756;2022-08-01T19:23:14;25.60;93.00
17172;DHT22;8701;50.150;8.756;2022-08-01T19:27:35;25.70;93.60
17172;DHT22;8701;50.150;8.756;2022-08-01T19:31:41;25.20;93.40
17172;DHT22;8701;50.150;8.756;2022-08-01T19:35:43;25.30;93.60
17172;DHT22;8701;50.150;8.756;2022-08-01T19:39:46;25.30;93.80
17172;DHT22;8701;50.150;8.756;2022-08-01T19:43:50;25.50;93.60
17172;DHT22;8701;50.150;8.756;2022-08-01T19:47:53;25.30;93.70
17172;DHT22;8701;50.150;8.756;2022-08-01T19:51:58;25.20;93.80
17172;DHT22;8701;50.150;8.756;2022-08-01T19:56:03;25.20;93.80
17172;DHT22;8701;50.150;8.756;2022-08-01T20:00:09;25.20;93.70
17172;DHT22;8701;50.150;8.756;2022-08-01T20:04:13;25.10;94.10
17172;DHT22;8701;50.150;8.756;2022-08-01T20:08:16;25.10;94.20
17172;DHT22;8701;50.150;8.756;2022-08-01T20:12:19;25.10;94.40
17172;DHT22;8701;50.150;8.756;2022-08-01T20:16:24;25.00;94.70
17172;DHT22;8701;50.150;8.756;2022-08-01T20:20:28;24.90;95.00
17172;DHT22;8701;50.150;8.756;2022-08-01T20:24:36;24.80;95.20
17172;DHT22;8701;50.150;8.756;2022-08-01T20:28:39;24.70;95.70
17172;DHT22;8701;50.150;8.756;2022-08-01T20:32:43;24.60;96.60
17172;DHT22;8701;50.150;8.756;2022-08-01T20:36:46;24.50;96.40
17172;DHT22;8701;50.150;8.756;2022-08-01T20:40:48;24.30;96.80
17172;DHT22;8701;50.150;8.756;2022-08-01T20:44:52;24.40;97.30
17172;DHT22;8701;50.150;8.756;2022-08-01T20:48:57;24.30;97.30
17172;DHT22;8701;50.150;8.756;2022-08-01T20:53:00;24.20;97.70
17172;DHT22;8701;50.150;8.756;2022-08-01T20:57:05;24.30;98.00
17172;DHT22;8701;50.150;8.756;2022-08-01T21:01:10;24.10;98.30
17172;DHT22;8701;50.150;8.756;2022-08-01T21:05:20;24.10;98.70
17172;DHT22;8701;50.150;8.756;2022-08-01T21:09:26;24.30;98.70
17172;DHT22;8701;50.150;8.756;2022-08-01T21:13:37;24.00;98.60
17172;DHT22;8701;50.150;8.756;2022-08-01T21:17:44;24.10;99.20
17172;DHT22;8701;50.150;8.756;2022-08-01T21:21:50;23.90;99.60
17172;DHT22;8701;50.150;8.756;2022-08-01T21:25:56;23.90;99.90
17172;DHT22;8701;50.150;8.756;2022-08-01T21:30:02;23.60;99.90
17172;DHT22;8701;50.150;8.756;2022-08-01T21:34:04;23.70;99.90
17172;DHT22;8701;50.150;8.756;2022-08-01T21:38:09;23.50;99.90
17172;DHT22;8701;50.150;8.756;2022-08-01T21:42:13;23.70;99.90
17172;DHT22;8701;50.150;8.756;2022-08-01T21:46:16;23.40;99.90
17172;DHT22;8701;50.150;8.756;2022-08-01T21:50:19;23.30;99.90
17172;DHT22;8701;50.150;8.756;2022-08-01T21:54:28;23.30;99.90
17172;DHT22;8701;50.150;8.756;2022-08-01T21:58:43;23.20;99.90
17172;DHT22;8701;50.150;8.756;2022-08-01T22:02:51;23.10;99.90
17172;DHT22;8701;50.150;8.756;2022-08-01T22:06:56;23.10;99.90
17172;DHT22;8701;50.150;8.756;2022-08-01T22:11:03;23.00;99.90
17172;DHT22;8701;50.150;8.756;2022-08-01T22:15:07;23.00;99.90
17172;DHT22;8701;50.150;8.756;2022-08-01T22:19:10;22.90;99.90
17172;DHT22;8701;50.150;8.756;2022-08-01T22:23:15;22.90;99.90
17172;DHT22;8701;50.150;8.756;2022-08-01T22:27:20;22.80;99.90
17172;DHT22;8701;50.150;8.756;2022-08-01T22:31:25;22.70;99.90
17172;DHT22;8701;50.150;8.756;2022-08-01T22:35:27;22.70;99.90
17172;DHT22;8701;50.150;8.756;2022-08-01T22:39:30;22.50;99.90
17172;DHT22;8701;50.150;8.756;2022-08-01T22:43:38;22.60;99.90
17172;DHT22;8701;50.150;8.756;2022-08-01T22:47:51;22.50;99.90
17172;DHT22;8701;50.150;8.756;2022-08-01T22:51:59;22.50;99.90
17172;DHT22;8701;50.150;8.756;2022-08-01T22:56:08;22.50;99.90
17172;DHT22;8701;50.150;8.756;2022-08-01T23:00:13;22.40;99.90
17172;DHT22;8701;50.150;8.756;2022-08-01T23:04:21;22.40;99.90
17172;DHT22;8701;50.150;8.756;2022-08-01T23:08:24;22.30;99.90
17172;DHT22;8701;50.150;8.756;2022-08-01T23:12:28;22.30;99.90
17172;DHT22;8701;50.150;8.756;2022-08-01T23:16:34;22.30;99.90
17172;DHT22;8701;50.150;8.756;2022-08-01T23:20:38;22.40;99.90
17172;DHT22;8701;50.150;8.756;2022-08-01T23:24:40;22.20;99.90
17172;DHT22;8701;50.150;8.756;2022-08-01T23:28:45;22.20;99.90
17172;DHT22;8701;50.150;8.756;2022-08-01T23:32:49;22.20;99.90
17172;DHT22;8701;50.150;8.756;2022-08-01T23:36:51;22.10;99.90
17172;DHT22;8701;50.150;8.756;2022-08-01T23:40:53;22.10;99.90
17172;DHT22;8701;50.150;8.756;2022-08-01T23:44:56;22.00;99.90
17172;DHT22;8701;50.150;8.756;2022-08-01T23:48:59;22.00;99.90
17172;DHT22;8701;50.150;8.756;2022-08-01T23:53:01;21.90;99.90
17172;DHT22;8701;50.150;8.756;2022-08-01T23:57:04;21.90;99.90
